sensor_id;sensor_type;location;lat;lon;timestamp;P1;durP1;ratioP1;P2;durP2;ratioP2
30370;SDS011;17164;48.590;11.410;2022-08-21T00:01:03;5.87;;;2.10;;
30370;SDS011;17164;48.590;11.410;2022-08-21T00:03:34;3.47;;;2.30;;
30370;SDS011;17164;48.590;11.410;2022-08-21T00:05:59;3.67;;;2.37;;
30370;SDS011;17164;48.590;11.410;2022-08-21T00:08:25;3.10;;;2.50;;
30370;SDS011;17164;48.590;11.410;2022-08-21T00:10:50;5.23;;;2.60;;
30370;SDS011;17164;48.590;11.410;2022-08-21T00:13:17;6.77;;;2.73;;
30370;SDS011;17164;48.590;11.410;2022-08-21T00:15:43;4.60;;;3.17;;
30370;SDS011;17164;48.590;11.410;2022-08-21T00:18:09;7.13;;;2.50;;
30370;SDS011;17164;48.590;11.410;2022-08-21T00:20:35;2.87;;;2.40;;
30370;SDS011;17164;48.590;11.410;2022-08-21T00:23:02;4.57;;;2.60;;
30370;SDS011;17164;48.590;11.410;2022-08-21T00:25:28;4.70;;;2.50;;
30370;SDS011;17164;48.590;11.410;2022-08-21T00:27:55;3.97;;;2.83;;
30370;SDS011;17164;48.590;11.410;2022-08-21T00:30:22;4.47;;;2.70;;
30370;SDS011;17164;48.590;11.410;2022-08-21T00:32:50;3.80;;;2.70;;
30370;SDS011;17164;48.590;11.410;2022-08-21T00:35:20;4.07;;;2.50;;
30370;SDS011;17164;48.590;11.410;2022-08-21T00:37:51;5.30;;;2.80;;
30370;SDS011;17164;48.590;11.410;2022-08-21T00:40:19;3.47;;;2.67;;
30370;SDS011;17164;48.590;11.410;2022-08-21T00:42:48;4.33;;;2.40;;
30370;SDS011;17164;48.590;11.410;2022-08-21T00:45:15;2.70;;;2.00;;
30370;SDS011;17164;48.590;11.410;2022-08-21T00:47:40;3.73;;;2.40;;
30370;SDS011;17164;48.590;11.410;2022-08-21T00:50:06;3.37;;;2.60;;
30370;SDS011;17164;48.590;11.410;2022-08-21T00:52:35;4.47;;;2.53;;
30370;SDS011;17164;48.590;11.410;2022-08-21T00:55:03;3.43;;;2.27;;
30370;SDS011;17164;48.590;11.410;2022-08-21T00:57:33;3.80;;;2.20;;
30370;SDS011;17164;48.590;11.410;2022-08-21T01:00:06;6.13;;;2.63;;
30370;SDS011;17164;48.590;11.410;2022-08-21T01:02:34;3.57;;;2.73;;
30370;SDS011;17164;48.590;11.410;2022-08-21T01:05:00;3.63;;;2.27;;
30370;SDS011;17164;48.590;11.410;2022-08-21T01:07:26;2.97;;;1.90;;
30370;SDS011;17164;48.590;11.410;2022-08-21T01:09:52;2.93;;;2.27;;
30370;SDS011;17164;48.590;11.410;2022-08-21T01:12:17;3.40;;;2.57;;
30370;SDS011;17164;48.590;11.410;2022-08-21T01:14:43;4.50;;;2.77;;
30370;SDS011;17164;48.590;11.410;2022-08-21T01:17:10;5.97;;;2.40;;
30370;SDS011;17164;48.590;11.410;2022-08-21T01:19:38;3.37;;;2.30;;
30370;SDS011;17164;48.590;11.410;2022-08-21T01:22:04;4.60;;;2.60;;
30370;SDS011;17164;48.590;11.410;2022-08-21T01:24:30;3.10;;;2.63;;
30370;SDS011;17164;48.590;11.410;2022-08-21T01:26:59;3.67;;;2.50;;
30370;SDS011;17164;48.590;11.410;2022-08-21T01:29:42;5.47;;;2.40;;
30370;SDS011;17164;48.590;11.410;2022-08-21T01:32:13;5.43;;;2.70;;
30370;SDS011;17164;48.590;11.410;2022-08-21T01:34:42;3.97;;;2.60;;
30370;SDS011;17164;48.590;11.410;2022-08-21T01:37:10;4.83;;;2.60;;
30370;SDS011;17164;48.590;11.410;2022-08-21T01:39:37;6.97;;;2.90;;
30370;SDS011;17164;48.590;11.410;2022-08-21T01:42:03;4.73;;;2.50;;
30370;SDS011;17164;48.590;11.410;2022-08-21T01:44:29;6.73;;;2.80;;
30370;SDS011;17164;48.590;11.410;2022-08-21T01:46:57;3.17;;;2.67;;
30370;SDS011;17164;48.590;11.410;2022-08-21T01:49:24;3.50;;;2.47;;
30370;SDS011;17164;48.590;11.410;2022-08-21T01:51:50;3.77;;;2.90;;
30370;SDS011;17164;48.590;11.410;2022-08-21T01:54:16;5.33;;;2.23;;
30370;SDS011;17164;48.590;11.410;2022-08-21T01:56:44;2.83;;;2.13;;
30370;SDS011;17164;48.590;11.410;2022-08-21T01:59:12;5.90;;;3.00;;
30370;SDS011;17164;48.590;11.410;2022-08-21T02:01:38;4.07;;;2.47;;
30370;SDS011;17164;48.590;11.410;2022-08-21T02:04:07;4.40;;;2.50;;
30370;SDS011;17164;48.590;11.410;2022-08-21T02:06:34;4.17;;;2.67;;
30370;SDS011;17164;48.590;11.410;2022-08-21T02:09:00;4.53;;;2.67;;
30370;SDS011;17164;48.590;11.410;2022-08-21T02:11:28;5.43;;;2.80;;
30370;SDS011;17164;48.590;11.410;2022-08-21T02:13:53;4.43;;;2.47;;
30370;SDS011;17164;48.590;11.410;2022-08-21T02:16:19;3.80;;;2.47;;
30370;SDS011;17164;48.590;11.410;2022-08-21T02:18:45;3.83;;;2.73;;
30370;SDS011;17164;48.590;11.410;2022-08-21T02:21:11;4.47;;;2.20;;
30370;SDS011;17164;48.590;11.410;2022-08-21T02:23:36;4.53;;;2.27;;
30370;SDS011;17164;48.590;11.410;2022-08-21T02:26:03;5.27;;;2.13;;
30370;SDS011;17164;48.590;11.410;2022-08-21T02:28:31;5.87;;;2.43;;
30370;SDS011;17164;48.590;11.410;2022-08-21T02:30:57;3.50;;;2.20;;
30370;SDS011;17164;48.590;11.410;2022-08-21T02:33:23;3.40;;;2.53;;
30370;SDS011;17164;48.590;11.410;2022-08-21T02:35:50;4.30;;;2.23;;
30370;SDS011;17164;48.590;11.410;2022-08-21T02:38:20;3.67;;;2.67;;
30370;SDS011;17164;48.590;11.410;2022-08-21T02:40:48;4.60;;;2.77;;
30370;SDS011;17164;48.590;11.410;2022-08-21T02:43:16;4.70;;;2.70;;
30370;SDS011;17164;48.590;11.410;2022-08-21T02:45:43;3.50;;;2.43;;
30370;SDS011;17164;48.590;11.410;2022-08-21T02:48:11;3.37;;;2.50;;
30370;SDS011;17164;48.590;11.410;2022-08-21T02:50:42;3.60;;;2.60;;
30370;SDS011;17164;48.590;11.410;2022-08-21T02:53:19;3.87;;;2.67;;
30370;SDS011;17164;48.590;11.410;2022-08-21T02:55:45;3.70;;;2.80;;
30370;SDS011;17164;48.590;11.410;2022-08-21T02:58:13;3.53;;;2.70;;
30370;SDS011;17164;48.590;11.410;2022-08-21T03:00:41;3.63;;;2.63;;
30370;SDS011;17164;48.590;11.410;2022-08-21T03:03:08;4.60;;;2.80;;
30370;SDS011;17164;48.590;11.410;2022-08-21T03:05:35;4.00;;;2.57;;
30370;SDS011;17164;48.590;11.410;2022-08-21T03:08:03;3.67;;;2.50;;
30370;SDS011;17164;48.590;11.410;2022-08-21T03:10:29;5.23;;;2.57;;
30370;SDS011;17164;48.590;11.410;2022-08-21T03:12:56;4.00;;;2.70;;
30370;SDS011;17164;48.590;11.410;2022-08-21T03:15:22;4.13;;;2.83;;
30370;SDS011;17164;48.590;11.410;2022-08-21T03:17:49;4.27;;;2.40;;
30370;SDS011;17164;48.590;11.410;2022-08-21T03:20:18;4.47;;;2.30;;
30370;SDS011;17164;48.590;11.410;2022-08-21T03:22:47;3.87;;;2.30;;
30370;SDS011;17164;48.590;11.410;2022-08-21T03:25:12;4.60;;;2.50;;
30370;SDS011;17164;48.590;11.410;2022-08-21T03:27:38;3.90;;;2.60;;
30370;SDS011;17164;48.590;11.410;2022-08-21T03:30:04;4.83;;;2.50;;
30370;SDS011;17164;48.590;11.410;2022-08-21T03:32:32;4.10;;;2.60;;
30370;SDS011;17164;48.590;11.410;2022-08-21T03:34:58;3.60;;;2.60;;
30370;SDS011;17164;48.590;11.410;2022-08-21T03:37:25;4.20;;;2.43;;
30370;SDS011;17164;48.590;11.410;2022-08-21T03:39:51;3.80;;;2.70;;
30370;SDS011;17164;48.590;11.410;2022-08-21T03:42:16;3.50;;;2.70;;
30370;SDS011;17164;48.590;11.410;2022-08-21T03:44:42;4.93;;;2.87;;
30370;SDS011;17164;48.590;11.410;2022-08-21T03:47:07;5.47;;;2.47;;
30370;SDS011;17164;48.590;11.410;2022-08-21T03:49:33;4.37;;;2.53;;
30370;SDS011;17164;48.590;11.410;2022-08-21T03:51:59;3.10;;;2.23;;
30370;SDS011;17164;48.590;11.410;2022-08-21T03:54:25;8.10;;;2.60;;
30370;SDS011;17164;48.590;11.410;2022-08-21T03:56:50;4.23;;;2.40;;
30370;SDS011;17164;48.590;11.410;2022-08-21T03:59:16;4.13;;;3.50;;
30370;SDS011;17164;48.590;11.410;2022-08-21T04:01:53;3.23;;;2.37;;
30370;SDS011;17164;48.590;11.410;2022-08-21T04:04:19;5.57;;;2.33;;
30370;SDS011;17164;48.590;11.410;2022-08-21T04:06:45;4.17;;;2.40;;
30370;SDS011;17164;48.590;11.410;2022-08-21T04:09:11;4.77;;;2.30;;
30370;SDS011;17164;48.590;11.410;2022-08-21T04:11:37;4.60;;;2.70;;
30370;SDS011;17164;48.590;11.410;2022-08-21T04:14:02;5.17;;;2.93;;
30370;SDS011;17164;48.590;11.410;2022-08-21T04:16:29;3.93;;;2.73;;
30370;SDS011;17164;48.590;11.410;2022-08-21T04:18:55;4.03;;;2.93;;
30370;SDS011;17164;48.590;11.410;2022-08-21T04:21:21;4.40;;;2.70;;
30370;SDS011;17164;48.590;11.410;2022-08-21T04:23:48;3.40;;;2.40;;
30370;SDS011;17164;48.590;11.410;2022-08-21T04:26:13;4.27;;;2.83;;
30370;SDS011;17164;48.590;11.410;2022-08-21T04:28:39;4.57;;;2.37;;
30370;SDS011;17164;48.590;11.410;2022-08-21T04:31:04;3.83;;;2.60;;
30370;SDS011;17164;48.590;11.410;2022-08-21T04:33:30;3.33;;;2.63;;
30370;SDS011;17164;48.590;11.410;2022-08-21T04:35:56;7.07;;;3.07;;
30370;SDS011;17164;48.590;11.410;2022-08-21T04:38:21;6.27;;;2.70;;
30370;SDS011;17164;48.590;11.410;2022-08-21T04:40:48;7.50;;;3.00;;
30370;SDS011;17164;48.590;11.410;2022-08-21T04:43:14;5.13;;;3.10;;
30370;SDS011;17164;48.590;11.410;2022-08-21T04:45:41;5.13;;;2.97;;
30370;SDS011;17164;48.590;11.410;2022-08-21T04:48:10;4.47;;;3.00;;
30370;SDS011;17164;48.590;11.410;2022-08-21T04:50:38;4.67;;;2.80;;
30370;SDS011;17164;48.590;11.410;2022-08-21T04:53:12;4.77;;;3.00;;
30370;SDS011;17164;48.590;11.410;2022-08-21T04:55:40;6.00;;;3.43;;
30370;SDS011;17164;48.590;11.410;2022-08-21T04:58:07;4.17;;;2.83;;
30370;SDS011;17164;48.590;11.410;2022-08-21T05:00:36;4.10;;;3.00;;
30370;SDS011;17164;48.590;11.410;2022-08-21T05:03:02;4.40;;;3.37;;
30370;SDS011;17164;48.590;11.410;2022-08-21T05:05:31;5.67;;;3.30;;
30370;SDS011;17164;48.590;11.410;2022-08-21T05:07:58;5.50;;;3.40;;
30370;SDS011;17164;48.590;11.410;2022-08-21T05:10:25;3.77;;;2.70;;
30370;SDS011;17164;48.590;11.410;2022-08-21T05:12:51;5.93;;;3.10;;
30370;SDS011;17164;48.590;11.410;2022-08-21T05:15:17;4.10;;;2.90;;
30370;SDS011;17164;48.590;11.410;2022-08-21T05:17:43;4.40;;;3.10;;
30370;SDS011;17164;48.590;11.410;2022-08-21T05:20:10;4.80;;;3.23;;
30370;SDS011;17164;48.590;11.410;2022-08-21T05:22:37;4.00;;;2.73;;
30370;SDS011;17164;48.590;11.410;2022-08-21T05:25:03;3.23;;;2.77;;
30370;SDS011;17164;48.590;11.410;2022-08-21T05:27:29;6.30;;;3.40;;
30370;SDS011;17164;48.590;11.410;2022-08-21T05:29:55;5.13;;;3.10;;
30370;SDS011;17164;48.590;11.410;2022-08-21T05:32:22;3.50;;;3.13;;
30370;SDS011;17164;48.590;11.410;2022-08-21T05:34:47;5.67;;;2.80;;
30370;SDS011;17164;48.590;11.410;2022-08-21T05:37:13;5.67;;;3.13;;
30370;SDS011;17164;48.590;11.410;2022-08-21T05:39:39;6.60;;;3.77;;
30370;SDS011;17164;48.590;11.410;2022-08-21T05:42:05;5.83;;;2.67;;
30370;SDS011;17164;48.590;11.410;2022-08-21T05:44:31;4.80;;;3.10;;
30370;SDS011;17164;48.590;11.410;2022-08-21T05:47:04;8.37;;;3.30;;
30370;SDS011;17164;48.590;11.410;2022-08-21T05:49:30;3.87;;;2.80;;
30370;SDS011;17164;48.590;11.410;2022-08-21T05:51:56;5.73;;;3.70;;
30370;SDS011;17164;48.590;11.410;2022-08-21T05:54:22;4.13;;;3.13;;
30370;SDS011;17164;48.590;11.410;2022-08-21T05:56:47;5.87;;;3.40;;
30370;SDS011;17164;48.590;11.410;2022-08-21T05:59:13;5.97;;;3.13;;
30370;SDS011;17164;48.590;11.410;2022-08-21T06:01:39;9.13;;;4.03;;
30370;SDS011;17164;48.590;11.410;2022-08-21T06:04:05;7.43;;;3.87;;
30370;SDS011;17164;48.590;11.410;2022-08-21T06:06:32;5.60;;;3.50;;
30370;SDS011;17164;48.590;11.410;2022-08-21T06:08:58;4.57;;;3.37;;
30370;SDS011;17164;48.590;11.410;2022-08-21T06:11:23;5.63;;;3.87;;
30370;SDS011;17164;48.590;11.410;2022-08-21T06:13:49;5.63;;;3.57;;
30370;SDS011;17164;48.590;11.410;2022-08-21T06:16:15;6.00;;;3.80;;
30370;SDS011;17164;48.590;11.410;2022-08-21T06:18:41;8.10;;;4.63;;
30370;SDS011;17164;48.590;11.410;2022-08-21T06:21:08;6.07;;;4.00;;
30370;SDS011;17164;48.590;11.410;2022-08-21T06:23:34;8.27;;;4.43;;
30370;SDS011;17164;48.590;11.410;2022-08-21T06:26:00;9.87;;;4.63;;
30370;SDS011;17164;48.590;11.410;2022-08-21T06:28:27;6.93;;;4.47;;
30370;SDS011;17164;48.590;11.410;2022-08-21T06:30:52;6.33;;;3.63;;
30370;SDS011;17164;48.590;11.410;2022-08-21T06:33:18;5.63;;;3.87;;
30370;SDS011;17164;48.590;11.410;2022-08-21T06:35:44;7.90;;;4.37;;
30370;SDS011;17164;48.590;11.410;2022-08-21T06:38:09;8.87;;;3.90;;
30370;SDS011;17164;48.590;11.410;2022-08-21T06:40:35;6.70;;;3.63;;
30370;SDS011;17164;48.590;11.410;2022-08-21T06:43:05;7.43;;;4.07;;
30370;SDS011;17164;48.590;11.410;2022-08-21T06:45:33;5.03;;;3.70;;
30370;SDS011;17164;48.590;11.410;2022-08-21T06:47:59;9.17;;;4.50;;
30370;SDS011;17164;48.590;11.410;2022-08-21T06:50:24;6.67;;;3.70;;
30370;SDS011;17164;48.590;11.410;2022-08-21T06:52:57;7.17;;;4.27;;
30370;SDS011;17164;48.590;11.410;2022-08-21T06:55:24;7.63;;;4.20;;
30370;SDS011;17164;48.590;11.410;2022-08-21T06:57:49;8.80;;;4.20;;
30370;SDS011;17164;48.590;11.410;2022-08-21T07:00:15;5.10;;;3.40;;
30370;SDS011;17164;48.590;11.410;2022-08-21T07:02:41;5.43;;;4.00;;
30370;SDS011;17164;48.590;11.410;2022-08-21T07:05:06;5.70;;;3.80;;
30370;SDS011;17164;48.590;11.410;2022-08-21T07:07:32;6.27;;;3.70;;
30370;SDS011;17164;48.590;11.410;2022-08-21T07:09:57;9.23;;;4.37;;
30370;SDS011;17164;48.590;11.410;2022-08-21T07:12:23;6.23;;;3.80;;
30370;SDS011;17164;48.590;11.410;2022-08-21T07:14:48;4.20;;;3.20;;
30370;SDS011;17164;48.590;11.410;2022-08-21T07:17:14;4.80;;;3.50;;
30370;SDS011;17164;48.590;11.410;2022-08-21T07:19:40;6.83;;;4.10;;
30370;SDS011;17164;48.590;11.410;2022-08-21T07:22:05;5.60;;;3.93;;
30370;SDS011;17164;48.590;11.410;2022-08-21T07:24:31;6.63;;;3.87;;
30370;SDS011;17164;48.590;11.410;2022-08-21T07:26:57;5.90;;;4.00;;
30370;SDS011;17164;48.590;11.410;2022-08-21T07:29:22;8.50;;;4.17;;
30370;SDS011;17164;48.590;11.410;2022-08-21T07:31:48;8.20;;;4.13;;
30370;SDS011;17164;48.590;11.410;2022-08-21T07:34:14;10.43;;;3.87;;
30370;SDS011;17164;48.590;11.410;2022-08-21T07:36:40;8.13;;;4.20;;
30370;SDS011;17164;48.590;11.410;2022-08-21T07:39:05;5.97;;;4.20;;
30370;SDS011;17164;48.590;11.410;2022-08-21T07:41:32;9.57;;;4.73;;
30370;SDS011;17164;48.590;11.410;2022-08-21T07:43:59;8.23;;;4.67;;
30370;SDS011;17164;48.590;11.410;2022-08-21T07:46:25;6.20;;;4.17;;
30370;SDS011;17164;48.590;11.410;2022-08-21T07:48:51;7.77;;;4.00;;
30370;SDS011;17164;48.590;11.410;2022-08-21T07:51:18;8.30;;;3.50;;
30370;SDS011;17164;48.590;11.410;2022-08-21T07:53:49;7.80;;;4.10;;
30370;SDS011;17164;48.590;11.410;2022-08-21T07:56:16;7.40;;;5.27;;
30370;SDS011;17164;48.590;11.410;2022-08-21T07:58:42;6.60;;;4.40;;
30370;SDS011;17164;48.590;11.410;2022-08-21T08:01:08;7.47;;;4.20;;
30370;SDS011;17164;48.590;11.410;2022-08-21T08:03:34;9.27;;;4.77;;
30370;SDS011;17164;48.590;11.410;2022-08-21T08:06:00;9.60;;;5.40;;
30370;SDS011;17164;48.590;11.410;2022-08-21T08:08:25;8.13;;;4.90;;
30370;SDS011;17164;48.590;11.410;2022-08-21T08:10:51;10.13;;;5.57;;
30370;SDS011;17164;48.590;11.410;2022-08-21T08:13:18;10.43;;;5.37;;
30370;SDS011;17164;48.590;11.410;2022-08-21T08:15:44;8.30;;;5.70;;
30370;SDS011;17164;48.590;11.410;2022-08-21T08:18:10;7.53;;;5.30;;
30370;SDS011;17164;48.590;11.410;2022-08-21T08:20:35;9.17;;;5.50;;
30370;SDS011;17164;48.590;11.410;2022-08-21T08:23:02;10.20;;;5.27;;
30370;SDS011;17164;48.590;11.410;2022-08-21T08:25:27;8.07;;;5.20;;
30370;SDS011;17164;48.590;11.410;2022-08-21T08:27:53;7.03;;;5.10;;
30370;SDS011;17164;48.590;11.410;2022-08-21T08:30:19;9.27;;;5.40;;
30370;SDS011;17164;48.590;11.410;2022-08-21T08:32:46;10.03;;;5.70;;
30370;SDS011;17164;48.590;11.410;2022-08-21T08:35:12;9.63;;;5.97;;
30370;SDS011;17164;48.590;11.410;2022-08-21T08:37:38;9.83;;;5.80;;
30370;SDS011;17164;48.590;11.410;2022-08-21T08:40:06;9.17;;;5.57;;
30370;SDS011;17164;48.590;11.410;2022-08-21T08:42:36;8.60;;;6.13;;
30370;SDS011;17164;48.590;11.410;2022-08-21T08:47:36;6.93;;;5.73;;
30370;SDS011;17164;48.590;11.410;2022-08-21T08:50:15;11.33;;;6.23;;
30370;SDS011;17164;48.590;11.410;2022-08-21T08:55:28;10.67;;;5.87;;
30370;SDS011;17164;48.590;11.410;2022-08-21T08:58:07;8.50;;;6.00;;
30370;SDS011;17164;48.590;11.410;2022-08-21T09:00:39;9.97;;;6.67;;
30370;SDS011;17164;48.590;11.410;2022-08-21T09:03:05;8.87;;;6.10;;
30370;SDS011;17164;48.590;11.410;2022-08-21T09:05:43;8.77;;;5.90;;
30370;SDS011;17164;48.590;11.410;2022-08-21T09:08:27;8.60;;;5.90;;
30370;SDS011;17164;48.590;11.410;2022-08-21T09:11:37;8.10;;;5.83;;
30370;SDS011;17164;48.590;11.410;2022-08-21T09:14:26;7.83;;;5.93;;
30370;SDS011;17164;48.590;11.410;2022-08-21T09:20:28;6.77;;;5.63;;
30370;SDS011;17164;48.590;11.410;2022-08-21T09:23:02;6.00;;;5.10;;
30370;SDS011;17164;48.590;11.410;2022-08-21T09:25:54;7.80;;;5.33;;
30370;SDS011;17164;48.590;11.410;2022-08-21T09:28:26;7.63;;;4.37;;
30370;SDS011;17164;48.590;11.410;2022-08-21T09:30:53;8.47;;;5.03;;
30370;SDS011;17164;48.590;11.410;2022-08-21T09:33:20;7.93;;;4.90;;
30370;SDS011;17164;48.590;11.410;2022-08-21T09:35:48;8.13;;;4.63;;
30370;SDS011;17164;48.590;11.410;2022-08-21T09:38:25;9.03;;;5.00;;
30370;SDS011;17164;48.590;11.410;2022-08-21T09:40:58;7.87;;;4.90;;
30370;SDS011;17164;48.590;11.410;2022-08-21T09:43:27;8.50;;;5.10;;
30370;SDS011;17164;48.590;11.410;2022-08-21T09:46:19;5.90;;;4.70;;
30370;SDS011;17164;48.590;11.410;2022-08-21T09:48:47;9.80;;;4.93;;
30370;SDS011;17164;48.590;11.410;2022-08-21T09:51:22;5.90;;;3.80;;
30370;SDS011;17164;48.590;11.410;2022-08-21T09:53:58;6.47;;;4.27;;
30370;SDS011;17164;48.590;11.410;2022-08-21T09:56:33;5.77;;;3.87;;
30370;SDS011;17164;48.590;11.410;2022-08-21T10:01:55;5.17;;;4.03;;
30370;SDS011;17164;48.590;11.410;2022-08-21T10:04:26;4.93;;;3.83;;
30370;SDS011;17164;48.590;11.410;2022-08-21T10:06:54;4.77;;;3.70;;
30370;SDS011;17164;48.590;11.410;2022-08-21T10:09:30;4.97;;;3.80;;
30370;SDS011;17164;48.590;11.410;2022-08-21T10:12:11;7.07;;;4.30;;
30370;SDS011;17164;48.590;11.410;2022-08-21T10:20:13;9.07;;;4.53;;
30370;SDS011;17164;48.590;11.410;2022-08-21T10:28:22;6.97;;;4.90;;
30370;SDS011;17164;48.590;11.410;2022-08-21T10:30:56;12.93;;;5.13;;
30370;SDS011;17164;48.590;11.410;2022-08-21T10:44:22;5.30;;;3.70;;
30370;SDS011;17164;48.590;11.410;2022-08-21T10:46:53;5.60;;;3.30;;
30370;SDS011;17164;48.590;11.410;2022-08-21T10:49:29;3.67;;;2.73;;
30370;SDS011;17164;48.590;11.410;2022-08-21T10:52:22;3.93;;;3.30;;
30370;SDS011;17164;48.590;11.410;2022-08-21T10:55:08;5.53;;;3.07;;
30370;SDS011;17164;48.590;11.410;2022-08-21T10:57:41;5.63;;;3.20;;
30370;SDS011;17164;48.590;11.410;2022-08-21T11:00:20;4.70;;;2.70;;
30370;SDS011;17164;48.590;11.410;2022-08-21T11:02:51;3.47;;;2.70;;
30370;SDS011;17164;48.590;11.410;2022-08-21T11:05:40;5.83;;;3.23;;
30370;SDS011;17164;48.590;11.410;2022-08-21T11:08:14;5.30;;;4.03;;
30370;SDS011;17164;48.590;11.410;2022-08-21T11:10:46;5.07;;;3.63;;
30370;SDS011;17164;48.590;11.410;2022-08-21T11:13:24;5.27;;;3.07;;
30370;SDS011;17164;48.590;11.410;2022-08-21T11:16:04;3.93;;;3.13;;
30370;SDS011;17164;48.590;11.410;2022-08-21T11:18:32;5.23;;;2.90;;
30370;SDS011;17164;48.590;11.410;2022-08-21T11:24:06;5.83;;;2.97;;
30370;SDS011;17164;48.590;11.410;2022-08-21T11:26:51;4.50;;;2.97;;
30370;SDS011;17164;48.590;11.410;2022-08-21T11:29:38;3.77;;;3.10;;
30370;SDS011;17164;48.590;11.410;2022-08-21T11:32:09;4.67;;;3.10;;
30370;SDS011;17164;48.590;11.410;2022-08-21T11:35:10;4.00;;;3.03;;
30370;SDS011;17164;48.590;11.410;2022-08-21T11:45:37;4.67;;;2.83;;
30370;SDS011;17164;48.590;11.410;2022-08-21T11:50:38;3.07;;;2.33;;
30370;SDS011;17164;48.590;11.410;2022-08-21T11:53:10;6.50;;;2.77;;
30370;SDS011;17164;48.590;11.410;2022-08-21T11:58:19;4.53;;;2.60;;
30370;SDS011;17164;48.590;11.410;2022-08-21T12:00:54;4.60;;;2.60;;
30370;SDS011;17164;48.590;11.410;2022-08-21T12:06:05;4.33;;;2.37;;
30370;SDS011;17164;48.590;11.410;2022-08-21T12:13:36;3.60;;;2.10;;
30370;SDS011;17164;48.590;11.410;2022-08-21T12:16:14;4.33;;;2.23;;
30370;SDS011;17164;48.590;11.410;2022-08-21T12:19:02;4.43;;;2.10;;
30370;SDS011;17164;48.590;11.410;2022-08-21T12:21:33;3.87;;;2.70;;
30370;SDS011;17164;48.590;11.410;2022-08-21T12:24:04;5.80;;;2.30;;
30370;SDS011;17164;48.590;11.410;2022-08-21T12:26:50;2.93;;;1.90;;
30370;SDS011;17164;48.590;11.410;2022-08-21T12:29:20;3.77;;;2.00;;
30370;SDS011;17164;48.590;11.410;2022-08-21T12:31:52;4.20;;;1.90;;
30370;SDS011;17164;48.590;11.410;2022-08-21T12:34:18;5.30;;;2.00;;
30370;SDS011;17164;48.590;11.410;2022-08-21T12:36:49;4.00;;;2.50;;
30370;SDS011;17164;48.590;11.410;2022-08-21T12:39:22;3.80;;;2.57;;
30370;SDS011;17164;48.590;11.410;2022-08-21T12:41:59;3.17;;;1.70;;
30370;SDS011;17164;48.590;11.410;2022-08-21T12:44:35;2.93;;;1.97;;
30370;SDS011;17164;48.590;11.410;2022-08-21T12:47:06;3.93;;;2.20;;
30370;SDS011;17164;48.590;11.410;2022-08-21T12:49:56;3.50;;;2.07;;
30370;SDS011;17164;48.590;11.410;2022-08-21T12:52:44;3.40;;;2.13;;
30370;SDS011;17164;48.590;11.410;2022-08-21T12:55:25;3.40;;;2.47;;
30370;SDS011;17164;48.590;11.410;2022-08-21T12:57:53;5.90;;;2.10;;
30370;SDS011;17164;48.590;11.410;2022-08-21T13:00:20;3.57;;;2.40;;
30370;SDS011;17164;48.590;11.410;2022-08-21T13:02:49;2.43;;;2.00;;
30370;SDS011;17164;48.590;11.410;2022-08-21T13:05:28;3.90;;;2.00;;
30370;SDS011;17164;48.590;11.410;2022-08-21T13:08:04;4.37;;;1.87;;
30370;SDS011;17164;48.590;11.410;2022-08-21T13:10:33;3.03;;;2.00;;
30370;SDS011;17164;48.590;11.410;2022-08-21T13:13:01;4.20;;;2.30;;
30370;SDS011;17164;48.590;11.410;2022-08-21T13:15:32;5.40;;;2.57;;
30370;SDS011;17164;48.590;11.410;2022-08-21T13:18:01;4.73;;;2.50;;
30370;SDS011;17164;48.590;11.410;2022-08-21T13:20:34;4.00;;;1.90;;
30370;SDS011;17164;48.590;11.410;2022-08-21T13:23:03;3.60;;;2.43;;
30370;SDS011;17164;48.590;11.410;2022-08-21T13:25:40;6.07;;;2.30;;
30370;SDS011;17164;48.590;11.410;2022-08-21T13:28:11;3.93;;;2.47;;
30370;SDS011;17164;48.590;11.410;2022-08-21T13:30:43;3.90;;;2.43;;
30370;SDS011;17164;48.590;11.410;2022-08-21T13:33:12;5.93;;;2.30;;
30370;SDS011;17164;48.590;11.410;2022-08-21T13:38:22;3.57;;;2.27;;
30370;SDS011;17164;48.590;11.410;2022-08-21T13:41:04;3.07;;;1.93;;
30370;SDS011;17164;48.590;11.410;2022-08-21T13:43:37;4.37;;;2.10;;
30370;SDS011;17164;48.590;11.410;2022-08-21T13:46:10;3.13;;;2.00;;
30370;SDS011;17164;48.590;11.410;2022-08-21T13:48:38;3.70;;;2.10;;
30370;SDS011;17164;48.590;11.410;2022-08-21T13:51:04;2.77;;;1.77;;
30370;SDS011;17164;48.590;11.410;2022-08-21T13:53:32;3.73;;;2.60;;
30370;SDS011;17164;48.590;11.410;2022-08-21T13:56:00;4.83;;;2.17;;
30370;SDS011;17164;48.590;11.410;2022-08-21T13:58:31;3.53;;;2.13;;
30370;SDS011;17164;48.590;11.410;2022-08-21T14:01:17;3.43;;;2.20;;
30370;SDS011;17164;48.590;11.410;2022-08-21T14:03:56;5.77;;;2.27;;
30370;SDS011;17164;48.590;11.410;2022-08-21T14:06:27;4.67;;;2.20;;
30370;SDS011;17164;48.590;11.410;2022-08-21T14:08:58;4.53;;;2.40;;
30370;SDS011;17164;48.590;11.410;2022-08-21T14:11:26;2.60;;;2.10;;
30370;SDS011;17164;48.590;11.410;2022-08-21T14:13:58;4.30;;;2.40;;
30370;SDS011;17164;48.590;11.410;2022-08-21T14:16:40;3.77;;;2.30;;
30370;SDS011;17164;48.590;11.410;2022-08-21T14:19:11;3.53;;;2.13;;
30370;SDS011;17164;48.590;11.410;2022-08-21T14:21:44;3.83;;;2.00;;
30370;SDS011;17164;48.590;11.410;2022-08-21T14:24:29;4.43;;;2.10;;
30370;SDS011;17164;48.590;11.410;2022-08-21T14:26:56;3.17;;;2.30;;
30370;SDS011;17164;48.590;11.410;2022-08-21T14:29:31;5.37;;;2.37;;
30370;SDS011;17164;48.590;11.410;2022-08-21T14:32:08;6.10;;;2.40;;
30370;SDS011;17164;48.590;11.410;2022-08-21T14:34:38;2.87;;;2.17;;
30370;SDS011;17164;48.590;11.410;2022-08-21T14:37:03;5.97;;;2.03;;
30370;SDS011;17164;48.590;11.410;2022-08-21T14:39:29;2.93;;;2.10;;
30370;SDS011;17164;48.590;11.410;2022-08-21T14:41:54;3.40;;;2.30;;
30370;SDS011;17164;48.590;11.410;2022-08-21T14:44:22;5.43;;;2.77;;
30370;SDS011;17164;48.590;11.410;2022-08-21T14:46:48;6.87;;;2.57;;
30370;SDS011;17164;48.590;11.410;2022-08-21T14:49:14;5.33;;;2.37;;
30370;SDS011;17164;48.590;11.410;2022-08-21T14:51:40;4.57;;;2.13;;
30370;SDS011;17164;48.590;11.410;2022-08-21T14:54:06;3.47;;;2.43;;
30370;SDS011;17164;48.590;11.410;2022-08-21T14:56:32;3.53;;;2.00;;
30370;SDS011;17164;48.590;11.410;2022-08-21T14:59:00;3.37;;;2.20;;
30370;SDS011;17164;48.590;11.410;2022-08-21T15:01:29;4.20;;;1.83;;
30370;SDS011;17164;48.590;11.410;2022-08-21T15:03:56;6.37;;;2.30;;
30370;SDS011;17164;48.590;11.410;2022-08-21T15:06:22;4.93;;;2.40;;
30370;SDS011;17164;48.590;11.410;2022-08-21T15:08:48;3.80;;;1.97;;
30370;SDS011;17164;48.590;11.410;2022-08-21T15:11:18;5.23;;;2.17;;
30370;SDS011;17164;48.590;11.410;2022-08-21T15:13:45;4.73;;;2.10;;
30370;SDS011;17164;48.590;11.410;2022-08-21T15:16:13;4.60;;;2.30;;
30370;SDS011;17164;48.590;11.410;2022-08-21T15:18:38;5.30;;;2.30;;
30370;SDS011;17164;48.590;11.410;2022-08-21T15:21:05;3.40;;;2.30;;
30370;SDS011;17164;48.590;11.410;2022-08-21T15:23:30;4.70;;;2.60;;
30370;SDS011;17164;48.590;11.410;2022-08-21T15:25:56;2.67;;;1.93;;
30370;SDS011;17164;48.590;11.410;2022-08-21T15:28:23;3.00;;;2.10;;
30370;SDS011;17164;48.590;11.410;2022-08-21T15:30:48;5.07;;;2.10;;
30370;SDS011;17164;48.590;11.410;2022-08-21T15:33:15;3.77;;;2.30;;
30370;SDS011;17164;48.590;11.410;2022-08-21T15:35:42;3.37;;;2.30;;
30370;SDS011;17164;48.590;11.410;2022-08-21T15:38:08;3.77;;;1.90;;
30370;SDS011;17164;48.590;11.410;2022-08-21T15:40:34;4.50;;;2.10;;
30370;SDS011;17164;48.590;11.410;2022-08-21T15:43:01;3.87;;;2.10;;
30370;SDS011;17164;48.590;11.410;2022-08-21T15:45:29;2.90;;;1.80;;